KWRBKLSF

Guest
Details From KWRB - Robins AFB
To KLSF - LAWSON AAF
Flight Number -
Tags generated
Created
Modified
Stats Distance 73 nm / 135 km
Max Altitude 3,700 ft / 1,128 m
Waypoints 3
Social Downloads 4
Likes 0
Share VATSIM

Download

Looking for another format? Having issues loading an existing format? Contact us
Advertisement - Login to hide

Notes

Basic altitude profile: - Ascent Rate: 2500ft/min - Ascent Speed: 250kts - Cruise Altitude: 35000ft - Cruise Speed: 420kts - Descent Rate: 1500ft/min - Descent Speed: 250kts Options: - Use NATs: yes - Use PACOTS: yes - Use low airways: yes - Use high airways: no

Route

KWRB BYROE KLSF

ID Type Via Altitude Latitude Longitude Leg Dist Tot Dist Heading (true) Name
O KWRB APT - 0 ft / 0 m 32.64017˚ -83.59194˚ - 0 nm - Robins AFB
BYROE FIX - 3,700 ft / 1,128 m 32.61803˚ -83.79627˚ 10 nm 10 nm 263° / 263° -
O KLSF APT - 0 ft / 0 m 32.33178˚ -84.98716˚ 62 nm 73 nm 254° / 254° LAWSON AAF

Altitude Profile

Advertisement - Login to hide

KWRB

Details ICAO KWRB (WRB)
Name Robins AFB
Region United States
Timezone America/New_York (UTC-4.0)
Stats Elevation 294 ft / 90 m (AMSL)
Location 32.640174° -83.591935°
Runways 1
Magnetic Variation 5.561° W

METAR

KWRB 270456Z AUTO 00000KT 10SM CLR 22/22 A2994 RMK AO2 SLP138 T02190219 403010211

Decode

TAF

TAF TAF KWRB 262100Z 2621/2803 16009KT 9999 SCT030 BKN150 QNH2988INS TEMPO 2621/2624 VRB15G25KT 4800 -TSRA OVC020CB BECMG 2623/2624 06009KT 9999 BKN020 QNH2989INS BECMG 2709/2710 07006KT 9999 BKN015 QNH2990INS BECMG 2714/2715 08009KT 9999 BKN012 QNH2991INS BECMG 2717/2718 09012KT 8000 -SHRA BKN020 QNH2990INS TX29/2621Z TN22/2712Z LAST NO AMDS AFT 2701 NEXT 2905

Decode

Departure Runways

ID Width Length Bearing (true) Bearing (mag) Surface Threshold Offset Overrun Length
15 299 ft / 91 m 12,012 ft / 3,661 m 144.20° 149.76° Concrete 0 ft / 0 m 1,001 ft / 305 m
33 299 ft / 91 m 12,012 ft / 3,661 m 324.21° 329.77° Concrete 0 ft / 0 m 1,001 ft / 305 m

KLSF

Details ICAO KLSF (LSF)
Name LAWSON AAF
Region United States
Timezone America/New_York (UTC-4.0)
Stats Elevation 232 ft / 71 m (AMSL)
Location 32.331782° -84.987156°
Runways 1
Magnetic Variation 4.576° W

METAR

KLSF 270456Z AUTO 00000KT 10SM BKN130 20/20 A2992 RMK AO2 SLP135 T02040204 403100189

Decode

TAF

Not found

Destination Runways

ID Width Length Bearing (true) Bearing (mag) Surface Threshold Offset Overrun Length
15 150 ft / 46 m 10,016 ft / 3,053 m 144.84° 149.42° Asphalt 0 ft / 0 m 1,000 ft / 305 m
33 150 ft / 46 m 10,016 ft / 3,053 m 324.85° 329.43° Asphalt 700 ft / 213 m 150 ft / 46 m

Approach Navaids

Runway Type Ident Frequency Range Bearing (true) Bearing (mag) Slope Elevation
33 Localiser ILSF 110.70 MHz 18 nm / 33 km 324.84° 329.41° - 232 ft / 71 m (AMSL)
33 Glidescope ILSF 110.70 MHz 10 nm / 19 km 324.84° 329.42° 3.00° 232 ft / 71 m (AMSL)